createdAt,value
2019-03-16T00:01:34.217Z,9.70
2019-03-16T00:04:05.457Z,9.60
2019-03-16T00:06:36.646Z,9.50
2019-03-16T00:09:09.376Z,9.50
2019-03-16T00:11:40.935Z,9.50
2019-03-16T00:14:12.276Z,9.50
2019-03-16T00:16:43.362Z,9.50
2019-03-16T00:19:14.532Z,9.50
2019-03-16T00:21:46.029Z,9.70
2019-03-16T00:24:17.341Z,9.70
2019-03-16T00:26:48.956Z,9.60
2019-03-16T00:29:20.166Z,9.50
2019-03-16T00:31:51.662Z,9.50
2019-03-16T00:34:22.739Z,9.50
2019-03-16T00:36:54.244Z,9.50
2019-03-16T00:39:25.321Z,9.50
2019-03-16T00:41:56.597Z,9.50
2019-03-16T00:44:27.753Z,9.50
2019-03-16T00:46:58.934Z,9.40
2019-03-16T00:49:30.047Z,9.40
2019-03-16T00:52:01.553Z,9.30
2019-03-16T00:54:32.594Z,9.30
2019-03-16T00:57:03.827Z,9.30
2019-03-16T00:59:35.004Z,9.20
2019-03-16T01:02:06.261Z,9.20
2019-03-16T01:04:37.513Z,9.20
2019-03-16T01:07:09.059Z,9.30
2019-03-16T01:09:43.489Z,9.20
2019-03-16T01:12:13.482Z,9.30
2019-03-16T01:14:44.643Z,9.40
2019-03-16T01:17:17.061Z,9.30
2019-03-16T01:19:48.575Z,9.30
2019-03-16T01:22:19.743Z,9.20
2019-03-16T01:24:50.855Z,9.20
2019-03-16T01:27:21.942Z,9.10
2019-03-16T01:29:53.040Z,9.00
2019-03-16T01:32:24.157Z,9.00
2019-03-16T01:34:55.307Z,8.90
2019-03-16T01:37:26.585Z,8.80
2019-03-16T01:39:58.062Z,8.80
2019-03-16T01:42:29.346Z,8.80
2019-03-16T01:45:00.508Z,8.80
2019-03-16T01:47:31.920Z,8.80
2019-03-16T01:50:03.147Z,8.70
2019-03-16T01:52:34.318Z,8.70
2019-03-16T01:55:05.878Z,8.80
2019-03-16T01:57:37.513Z,8.80
2019-03-16T02:00:09.717Z,8.70
2019-03-16T02:02:53.735Z,8.70
2019-03-16T02:05:13.954Z,8.70
2019-03-16T02:07:45.124Z,8.80
2019-03-16T02:10:16.385Z,8.80
2019-03-16T02:12:47.669Z,8.80
2019-03-16T02:15:18.786Z,8.80
2019-03-16T02:17:50.260Z,8.80
2019-03-16T02:20:21.703Z,8.80
2019-03-16T02:22:53.215Z,8.70
2019-03-16T02:25:24.353Z,8.70
2019-03-16T02:27:55.586Z,8.70
2019-03-16T02:30:26.810Z,8.70
2019-03-16T02:33:11.837Z,8.60
2019-03-16T02:35:30.902Z,8.60
2019-03-16T02:38:02.449Z,8.60
2019-03-16T02:40:33.683Z,8.50
2019-03-16T02:43:05.002Z,8.50
2019-03-16T02:45:36.474Z,8.50
2019-03-16T02:48:08.042Z,8.50
2019-03-16T02:50:39.573Z,8.50
2019-03-16T02:53:11.691Z,8.60
2019-03-16T02:55:42.880Z,8.70
2019-03-16T02:58:14.304Z,8.60
2019-03-16T03:00:45.419Z,8.60
2019-03-16T03:03:28.718Z,8.70
2019-03-16T03:05:49.461Z,8.70
2019-03-16T03:08:20.620Z,8.70
2019-03-16T03:10:51.758Z,8.60
2019-03-16T03:13:23.693Z,8.50
2019-03-16T03:15:54.912Z,8.50
2019-03-16T03:18:25.935Z,8.50
2019-03-16T03:20:57.040Z,8.40
2019-03-16T03:23:29.160Z,8.40
2019-03-16T03:26:00.295Z,8.40
2019-03-16T03:28:31.473Z,8.40
2019-03-16T03:31:03.420Z,8.40
2019-03-16T03:33:57.994Z,8.40
2019-03-16T03:36:07.766Z,8.40
2019-03-16T03:38:39.202Z,8.30
2019-03-16T03:41:10.676Z,8.30
2019-03-16T03:43:41.834Z,8.30
2019-03-16T03:46:13.022Z,8.30
2019-03-16T03:48:44.653Z,8.20
2019-03-16T03:51:15.916Z,8.20
2019-03-16T03:53:47.151Z,8.20
2019-03-16T03:56:18.572Z,8.20
2019-03-16T03:58:49.730Z,8.20
2019-03-16T04:01:21.049Z,8.20
2019-03-16T04:03:52.478Z,8.20
2019-03-16T04:06:23.773Z,8.30
2019-03-16T04:08:55.011Z,8.40
2019-03-16T04:11:26.256Z,8.40
2019-03-16T04:13:57.422Z,8.50
2019-03-16T04:16:28.624Z,8.60
2019-03-16T04:18:59.995Z,8.50
2019-03-16T04:21:31.325Z,8.50
2019-03-16T04:24:03.217Z,8.50
2019-03-16T04:26:34.369Z,8.50
2019-03-16T04:29:05.715Z,8.50
2019-03-16T04:31:37.111Z,8.50
2019-03-16T04:34:08.715Z,8.50
2019-03-16T04:36:39.870Z,8.60
2019-03-16T04:39:10.946Z,8.50
2019-03-16T04:41:42.113Z,8.40
2019-03-16T04:44:13.576Z,8.40
2019-03-16T04:46:44.724Z,8.50
2019-03-16T04:49:16.247Z,8.50
2019-03-16T04:51:47.671Z,8.50
2019-03-16T04:54:19.193Z,8.50
2019-03-16T04:56:50.617Z,8.50
2019-03-16T04:59:21.811Z,8.50
2019-03-16T05:01:53.011Z,8.50
2019-03-16T05:04:24.623Z,8.40
2019-03-16T05:06:55.901Z,8.40
2019-03-16T05:09:27.047Z,8.40
2019-03-16T05:11:58.544Z,8.40
2019-03-16T05:14:30.141Z,8.50
2019-03-16T05:17:01.416Z,8.50
2019-03-16T05:19:32.656Z,8.50
2019-03-16T05:22:04.542Z,8.60
2019-03-16T05:24:35.642Z,8.60
2019-03-16T05:27:06.713Z,8.50
2019-03-16T05:29:38.152Z,8.50
2019-03-16T05:32:09.323Z,8.50
2019-03-16T05:34:40.430Z,8.50
2019-03-16T05:37:11.548Z,8.50
2019-03-16T05:39:42.713Z,8.60
2019-03-16T05:42:14.192Z,8.60
2019-03-16T05:44:45.390Z,8.60
2019-03-16T05:47:16.568Z,8.60
2019-03-16T05:49:48.038Z,8.60
2019-03-16T05:52:19.597Z,8.60
2019-03-16T05:54:51.160Z,8.60
2019-03-16T05:57:22.608Z,8.70
2019-03-16T05:59:53.688Z,8.70
2019-03-16T06:02:24.763Z,8.70
2019-03-16T06:05:09.506Z,8.70
2019-03-16T06:07:29.037Z,8.60
2019-03-16T06:10:00.370Z,8.90
2019-03-16T06:12:31.904Z,9.10
2019-03-16T06:15:03.183Z,9.10
2019-03-16T06:17:34.856Z,9.10
2019-03-16T06:20:07.459Z,9.00
2019-03-16T06:22:39.055Z,8.90
2019-03-16T06:25:10.415Z,8.90
2019-03-16T06:27:41.668Z,8.90
2019-03-16T06:30:13.108Z,8.80
2019-03-16T06:32:44.916Z,8.80
2019-03-16T06:35:24.464Z,8.80
2019-03-16T06:37:49.387Z,8.80
2019-03-16T06:40:20.706Z,8.80
2019-03-16T06:42:52.257Z,8.90
2019-03-16T06:45:23.509Z,9.00
2019-03-16T06:47:55.407Z,9.20
2019-03-16T06:50:26.703Z,9.30
2019-03-16T06:52:57.793Z,9.50
2019-03-16T06:55:29.034Z,9.70
2019-03-16T06:58:00.206Z,9.90
2019-03-16T07:00:31.544Z,10.00
2019-03-16T07:03:03.361Z,10.20
2019-03-16T07:05:38.831Z,10.20
2019-03-16T07:08:07.497Z,10.30
2019-03-16T07:10:38.803Z,10.30
2019-03-16T07:13:10.348Z,10.40
2019-03-16T07:15:41.648Z,10.50
2019-03-16T07:18:12.917Z,10.60
2019-03-16T07:20:44.092Z,10.60
2019-03-16T07:23:15.289Z,10.60
2019-03-16T07:25:46.896Z,10.60
2019-03-16T07:28:18.087Z,10.70
2019-03-16T07:30:49.223Z,10.80
2019-03-16T07:33:20.737Z,10.80
2019-03-16T07:35:52.170Z,10.80
2019-03-16T07:38:23.459Z,10.80
2019-03-16T07:40:55.017Z,10.80
2019-03-16T07:43:26.142Z,10.80
2019-03-16T07:45:57.308Z,10.70
2019-03-16T07:48:28.480Z,10.80
2019-03-16T07:50:59.771Z,10.80
2019-03-16T07:53:31.509Z,10.80
2019-03-16T07:56:02.767Z,10.80
2019-03-16T07:58:33.836Z,10.80
2019-03-16T08:01:05.173Z,10.90
2019-03-16T08:03:36.661Z,10.80
2019-03-16T08:06:07.924Z,10.90
2019-03-16T08:08:39.393Z,10.90
2019-03-16T08:11:10.556Z,10.90
2019-03-16T08:13:41.731Z,11.00
2019-03-16T08:16:13.243Z,11.10
2019-03-16T08:18:45.007Z,11.00
2019-03-16T08:21:16.183Z,11.00
2019-03-16T08:23:47.415Z,11.00
2019-03-16T08:26:18.599Z,10.90
2019-03-16T08:28:49.720Z,10.90
2019-03-16T08:31:21.344Z,10.90
2019-03-16T08:33:52.578Z,10.90
2019-03-16T08:36:23.747Z,10.90
2019-03-16T08:38:55.345Z,10.90
2019-03-16T08:41:26.849Z,10.90
2019-03-16T08:43:58.398Z,10.90
2019-03-16T08:46:29.565Z,10.90
2019-03-16T08:49:00.707Z,11.10
2019-03-16T08:51:32.119Z,11.20
2019-03-16T08:54:03.404Z,11.30
2019-03-16T08:56:34.796Z,11.40
2019-03-16T08:59:06.505Z,11.40
2019-03-16T09:01:38.082Z,11.50
2019-03-16T09:04:09.495Z,11.40
2019-03-16T09:06:40.788Z,11.40
2019-03-16T09:09:11.906Z,11.40
2019-03-16T09:11:43.353Z,11.40
2019-03-16T09:14:14.660Z,11.50
2019-03-16T09:16:45.786Z,11.40
2019-03-16T09:19:16.944Z,11.40
2019-03-16T09:21:48.065Z,11.40
2019-03-16T09:24:19.905Z,11.40
2019-03-16T09:26:51.136Z,11.50
2019-03-16T09:29:22.537Z,11.60
2019-03-16T09:31:53.781Z,11.60
2019-03-16T09:34:24.988Z,11.60
2019-03-16T09:36:56.497Z,11.70
2019-03-16T09:39:27.933Z,11.70
2019-03-16T09:41:59.105Z,11.70
2019-03-16T09:44:30.305Z,11.80
2019-03-16T09:47:01.595Z,11.90
2019-03-16T09:49:32.760Z,11.90
2019-03-16T09:52:04.039Z,11.90
2019-03-16T09:54:35.853Z,11.90
2019-03-16T09:57:07.078Z,11.90
2019-03-16T09:59:38.427Z,11.90
2019-03-16T10:02:09.678Z,11.90
2019-03-16T10:04:40.740Z,12.10
2019-03-16T10:07:12.463Z,12.40
2019-03-16T10:09:43.811Z,12.70
2019-03-16T10:12:14.986Z,12.80
2019-03-16T10:14:46.264Z,12.90
2019-03-16T10:17:17.908Z,12.90
2019-03-16T10:19:49.015Z,12.80
2019-03-16T10:22:20.254Z,12.80
2019-03-16T10:24:51.837Z,12.70
2019-03-16T10:27:22.993Z,12.60
2019-03-16T10:29:54.291Z,12.60
2019-03-16T10:32:25.396Z,12.60
2019-03-16T10:34:57.551Z,12.60
2019-03-16T10:37:28.964Z,12.60
2019-03-16T10:40:00.059Z,12.40
2019-03-16T10:42:31.240Z,12.40
2019-03-16T10:45:02.402Z,12.50
2019-03-16T10:47:33.910Z,12.60
2019-03-16T10:50:05.914Z,12.60
2019-03-16T10:52:37.364Z,12.40
2019-03-16T10:55:08.649Z,12.30
2019-03-16T10:57:39.899Z,12.10
2019-03-16T11:00:11.850Z,12.00
2019-03-16T11:02:42.959Z,12.00
2019-03-16T11:05:14.264Z,12.00
2019-03-16T11:07:45.561Z,11.90
2019-03-16T11:10:16.805Z,11.90
2019-03-16T11:12:48.345Z,11.80
2019-03-16T11:15:19.691Z,11.80
2019-03-16T11:17:51.213Z,11.80
2019-03-16T11:20:23.238Z,11.80
2019-03-16T11:22:54.767Z,12.00
2019-03-16T11:25:26.369Z,12.20
2019-03-16T11:27:57.455Z,12.20
2019-03-16T11:30:28.673Z,12.30
2019-03-16T11:32:59.846Z,12.60
2019-03-16T11:35:31.569Z,12.80
2019-03-16T11:38:02.857Z,12.90
2019-03-16T11:40:34.120Z,13.10
2019-03-16T11:43:05.443Z,13.30
2019-03-16T11:45:37.046Z,13.40
2019-03-16T11:48:08.390Z,13.50
2019-03-16T11:50:39.639Z,13.50
2019-03-16T11:53:10.912Z,13.50
2019-03-16T11:55:42.176Z,13.40
2019-03-16T11:58:13.367Z,13.10
2019-03-16T12:00:44.671Z,13.00
2019-03-16T12:03:16.175Z,12.80
2019-03-16T12:05:47.392Z,12.60
2019-03-16T12:08:18.876Z,12.50
2019-03-16T12:10:50.448Z,12.40
2019-03-16T12:13:21.678Z,12.20
2019-03-16T12:15:52.946Z,12.10
2019-03-16T12:18:24.064Z,12.00
2019-03-16T12:20:55.177Z,12.00
2019-03-16T12:23:26.397Z,12.10
2019-03-16T12:25:57.601Z,12.20
2019-03-16T12:28:28.867Z,12.50
2019-03-16T12:31:00.900Z,12.80
2019-03-16T12:33:32.073Z,13.10
2019-03-16T12:36:03.629Z,13.00
2019-03-16T12:38:35.034Z,12.80
2019-03-16T12:41:06.386Z,12.40
2019-03-16T12:43:37.519Z,12.10
2019-03-16T12:46:08.733Z,12.00
2019-03-16T12:48:40.089Z,11.90
2019-03-16T12:51:11.352Z,11.90
2019-03-16T12:53:42.803Z,12.00
2019-03-16T12:56:14.014Z,12.10
2019-03-16T12:58:45.589Z,12.00
2019-03-16T13:01:17.150Z,12.00
2019-03-16T13:03:50.382Z,12.00
2019-03-16T13:06:21.903Z,12.00
2019-03-16T13:08:53.181Z,11.90
2019-03-16T13:11:24.302Z,12.00
2019-03-16T13:13:55.840Z,11.90
2019-03-16T13:16:26.999Z,11.90
2019-03-16T13:18:58.191Z,11.80
2019-03-16T13:21:29.330Z,11.70
2019-03-16T13:24:00.613Z,11.60
2019-03-16T13:26:31.812Z,11.50
2019-03-16T13:29:02.966Z,11.40
2019-03-16T13:31:34.254Z,11.40
2019-03-16T13:34:05.781Z,11.50
2019-03-16T13:36:37.041Z,11.60
2019-03-16T13:39:09.554Z,11.70
2019-03-16T13:41:40.678Z,11.70
2019-03-16T13:44:12.311Z,11.80
2019-03-16T13:46:44.053Z,11.90
2019-03-16T13:49:15.264Z,11.70
2019-03-16T13:51:46.459Z,11.70
2019-03-16T13:54:18.347Z,11.60
2019-03-16T13:56:49.523Z,11.60
2019-03-16T13:59:20.810Z,11.70
2019-03-16T14:01:52.376Z,11.70
2019-03-16T14:04:24.020Z,11.80
2019-03-16T14:06:55.147Z,12.00
2019-03-16T14:09:26.777Z,12.00
2019-03-16T14:11:58.405Z,12.10
2019-03-16T14:14:29.606Z,12.10
2019-03-16T14:17:00.821Z,12.00
2019-03-16T14:19:32.132Z,12.10
2019-03-16T14:22:03.388Z,12.20
2019-03-16T14:24:34.685Z,12.20
2019-03-16T14:27:08.281Z,12.10
2019-03-16T14:29:39.646Z,12.20
2019-03-16T14:32:10.959Z,12.20
2019-03-16T14:34:42.156Z,12.20
2019-03-16T14:37:13.414Z,12.30
2019-03-16T14:39:45.117Z,12.40
2019-03-16T14:42:16.909Z,12.40
2019-03-16T14:44:48.020Z,12.40
2019-03-16T14:47:19.302Z,12.30
2019-03-16T14:49:50.416Z,12.20
2019-03-16T14:52:21.755Z,12.20
2019-03-16T14:54:53.326Z,12.20
2019-03-16T14:57:24.595Z,12.20
2019-03-16T14:59:59.284Z,12.20
2019-03-16T15:02:29.283Z,12.30
2019-03-16T15:05:00.413Z,12.40
2019-03-16T15:07:31.657Z,12.50
2019-03-16T15:10:04.366Z,12.40
2019-03-16T15:12:35.941Z,12.50
2019-03-16T15:15:09.705Z,12.60
2019-03-16T15:17:41.264Z,12.60
2019-03-16T15:20:12.600Z,12.60
2019-03-16T15:22:43.801Z,12.60
2019-03-16T15:25:15.164Z,12.60
2019-03-16T15:27:46.552Z,12.60
2019-03-16T15:30:18.281Z,12.40
2019-03-16T15:32:49.487Z,12.40
2019-03-16T15:35:20.926Z,12.30
2019-03-16T15:37:52.229Z,12.30
2019-03-16T15:40:23.531Z,12.30
2019-03-16T15:42:55.199Z,12.20
2019-03-16T15:45:26.443Z,12.20
2019-03-16T15:47:57.730Z,12.20
2019-03-16T15:50:28.926Z,12.10
2019-03-16T15:53:00.585Z,12.10
2019-03-16T15:55:31.724Z,12.00
2019-03-16T15:58:07.793Z,12.00
2019-03-16T16:00:35.887Z,11.90
2019-03-16T16:03:09.232Z,12.00
2019-03-16T16:05:41.110Z,11.90
2019-03-16T16:08:12.806Z,12.00
2019-03-16T16:10:44.029Z,12.00
2019-03-16T16:13:15.345Z,11.90
2019-03-16T16:15:46.565Z,11.90
2019-03-16T16:18:17.700Z,11.90
2019-03-16T16:20:48.881Z,11.90
2019-03-16T16:23:20.459Z,11.90
2019-03-16T16:25:51.743Z,11.90
2019-03-16T16:28:23.006Z,11.80
2019-03-16T16:30:54.122Z,11.80
2019-03-16T16:33:25.325Z,11.80
2019-03-16T16:35:56.514Z,11.80
2019-03-16T16:38:27.786Z,11.80
2019-03-16T16:40:58.994Z,11.70
2019-03-16T16:43:30.978Z,11.60
2019-03-16T16:46:02.275Z,11.60
2019-03-16T16:48:33.484Z,11.60
2019-03-16T16:51:04.833Z,11.50
2019-03-16T16:53:36.051Z,11.50
2019-03-16T16:56:07.622Z,11.50
2019-03-16T16:58:38.817Z,11.50
2019-03-16T17:01:10.076Z,11.50
2019-03-16T17:03:41.667Z,11.50
2019-03-16T17:06:13.055Z,11.40
2019-03-16T17:08:44.516Z,11.40
2019-03-16T17:11:15.804Z,11.40
2019-03-16T17:13:46.935Z,11.30
2019-03-16T17:16:18.102Z,11.30
2019-03-16T17:18:49.433Z,11.20
2019-03-16T17:21:20.944Z,11.20
2019-03-16T17:23:52.121Z,11.20
2019-03-16T17:26:23.315Z,11.20
2019-03-16T17:28:54.554Z,11.10
2019-03-16T17:31:25.885Z,11.10
2019-03-16T17:33:57.485Z,11.00
2019-03-16T17:36:28.751Z,10.90
2019-03-16T17:38:59.870Z,10.90
2019-03-16T17:41:31.059Z,10.80
2019-03-16T17:44:02.274Z,10.80
2019-03-16T17:46:33.562Z,10.80
2019-03-16T17:49:04.867Z,10.80
2019-03-16T17:51:36.160Z,10.80
2019-03-16T17:54:07.443Z,10.70
2019-03-16T17:56:38.668Z,10.70
2019-03-16T17:59:09.835Z,10.60
2019-03-16T18:01:41.132Z,10.60
2019-03-16T18:04:12.579Z,10.50
2019-03-16T18:06:43.692Z,10.60
2019-03-16T18:09:14.838Z,10.60
2019-03-16T18:11:46.124Z,10.60
2019-03-16T18:14:17.689Z,10.60
2019-03-16T18:16:49.291Z,10.50
2019-03-16T18:19:20.577Z,10.40
2019-03-16T18:21:52.041Z,10.40
2019-03-16T18:24:23.758Z,10.30
2019-03-16T18:26:55.033Z,10.30
2019-03-16T18:29:26.464Z,10.20
2019-03-16T18:32:07.299Z,10.20
2019-03-16T18:34:30.941Z,10.20
2019-03-16T18:37:02.052Z,10.20
2019-03-16T18:39:33.150Z,10.30
2019-03-16T18:42:04.512Z,10.20
2019-03-16T18:44:36.328Z,10.10
2019-03-16T18:47:08.097Z,10.00
2019-03-16T18:49:39.197Z,10.00
2019-03-16T18:52:10.338Z,9.90
2019-03-16T18:54:41.536Z,9.80
2019-03-16T18:57:13.100Z,9.90
2019-03-16T18:59:44.362Z,9.90
2019-03-16T19:02:20.697Z,9.90
2019-03-16T19:04:49.107Z,9.90
2019-03-16T19:07:20.254Z,9.80
2019-03-16T19:09:53.649Z,9.80
2019-03-16T19:12:24.856Z,9.80
2019-03-16T19:14:56.343Z,9.80
2019-03-16T19:17:27.750Z,9.70
2019-03-16T19:19:58.931Z,9.70
2019-03-16T19:22:30.195Z,9.70
2019-03-16T19:25:01.309Z,9.70
2019-03-16T19:27:32.848Z,9.70
2019-03-16T19:30:04.065Z,9.70
2019-03-16T19:32:37.623Z,9.60
2019-03-16T19:35:08.755Z,9.70
2019-03-16T19:37:40.113Z,9.60
2019-03-16T19:40:12.123Z,9.60
2019-03-16T19:42:46.365Z,9.70
2019-03-16T19:45:16.338Z,9.60
2019-03-16T19:47:47.688Z,9.60
2019-03-16T19:50:18.893Z,9.60
2019-03-16T19:52:51.286Z,9.50
2019-03-16T19:55:22.510Z,9.50
2019-03-16T19:57:53.837Z,9.50
2019-03-16T20:00:25.106Z,9.50
2019-03-16T20:02:56.292Z,9.40
2019-03-16T20:05:27.531Z,9.50
2019-03-16T20:07:59.164Z,9.50
2019-03-16T20:10:30.684Z,9.50
2019-03-16T20:13:02.112Z,9.40
2019-03-16T20:15:33.329Z,9.30
2019-03-16T20:18:04.949Z,9.30
2019-03-16T20:20:36.189Z,9.30
2019-03-16T20:23:07.363Z,9.30
2019-03-16T20:25:38.872Z,9.30
2019-03-16T20:28:10.756Z,9.30
2019-03-16T20:30:42.174Z,9.30
2019-03-16T20:33:13.377Z,9.30
2019-03-16T20:35:44.631Z,9.30
2019-03-16T20:38:16.555Z,9.20
2019-03-16T20:40:50.292Z,9.20
2019-03-16T20:43:21.132Z,9.30
2019-03-16T20:45:52.208Z,9.20
2019-03-16T20:48:23.397Z,9.30
2019-03-16T20:50:54.965Z,9.20
2019-03-16T20:53:26.074Z,9.20
2019-03-16T20:55:57.139Z,9.20
2019-03-16T20:58:28.433Z,9.40
2019-03-16T21:01:00.083Z,9.30
2019-03-16T21:03:31.315Z,9.30
2019-03-16T21:06:02.444Z,9.30
2019-03-16T21:08:33.852Z,9.30
2019-03-16T21:11:05.113Z,9.40
2019-03-16T21:13:36.499Z,9.30
2019-03-16T21:16:07.571Z,9.40
2019-03-16T21:18:39.066Z,9.40
2019-03-16T21:21:10.517Z,9.40
2019-03-16T21:23:41.604Z,9.50
2019-03-16T21:26:13.004Z,9.50
2019-03-16T21:28:44.197Z,9.60
2019-03-16T21:31:15.627Z,9.50
2019-03-16T21:33:46.735Z,9.50
2019-03-16T21:36:18.412Z,9.40
2019-03-16T21:38:49.860Z,9.40
2019-03-16T21:41:21.432Z,9.40
2019-03-16T21:43:52.550Z,9.30
2019-03-16T21:46:23.653Z,9.40
2019-03-16T21:48:54.773Z,9.40
2019-03-16T21:51:25.962Z,9.30
2019-03-16T21:53:57.042Z,9.40
2019-03-16T21:56:28.323Z,9.40
2019-03-16T21:58:59.467Z,9.40
2019-03-16T22:01:31.100Z,9.40
2019-03-16T22:04:02.331Z,9.40
2019-03-16T22:06:33.472Z,9.40
2019-03-16T22:09:07.046Z,9.50
2019-03-16T22:11:38.143Z,9.50
2019-03-16T22:14:09.699Z,9.60
2019-03-16T22:16:40.859Z,9.60
2019-03-16T22:19:12.611Z,9.70
2019-03-16T22:21:44.138Z,9.70
2019-03-16T22:24:15.586Z,9.70
2019-03-16T22:26:47.053Z,9.80
2019-03-16T22:29:18.247Z,9.90
2019-03-16T22:31:49.830Z,9.90
2019-03-16T22:34:21.242Z,10.00
2019-03-16T22:36:52.522Z,10.00
2019-03-16T22:39:23.625Z,10.00
2019-03-16T22:41:54.802Z,10.00
2019-03-16T22:44:26.306Z,10.00
2019-03-16T22:46:57.389Z,10.00
2019-03-16T22:49:28.921Z,10.10
2019-03-16T22:52:00.118Z,10.10
2019-03-16T22:54:31.358Z,10.10
2019-03-16T22:57:02.459Z,10.20
2019-03-16T22:59:34.269Z,10.20
2019-03-16T23:02:06.159Z,10.20
2019-03-16T23:04:37.738Z,10.20
2019-03-16T23:07:09.078Z,10.30
2019-03-16T23:09:40.399Z,10.30
2019-03-16T23:12:11.642Z,10.30
2019-03-16T23:14:42.743Z,10.30
2019-03-16T23:17:13.951Z,10.30
2019-03-16T23:19:45.100Z,10.40
2019-03-16T23:22:16.337Z,10.40
2019-03-16T23:24:47.455Z,10.40
2019-03-16T23:27:18.625Z,10.50
2019-03-16T23:29:49.877Z,10.40
2019-03-16T23:32:21.687Z,10.30
2019-03-16T23:34:52.945Z,10.40
2019-03-16T23:37:24.434Z,10.40
2019-03-16T23:39:55.774Z,10.40
2019-03-16T23:42:27.078Z,10.40
2019-03-16T23:44:58.364Z,10.30
2019-03-16T23:47:29.505Z,10.30
2019-03-16T23:50:00.687Z,10.30
2019-03-16T23:52:31.791Z,10.30
2019-03-16T23:55:03.116Z,10.40
2019-03-16T23:57:34.649Z,10.40
